Time;durP1;ratioP1;P1;durP2;ratioP2;P2;SDS_P1;SDS_P2;PMS_P1;PMS_P2;Temp;Humidity;BMP_temperature;BMP_pressure;BME280_temperature;BME280_humidity;BME280_pressure;Samples;Min_cycle;Max_cycle;Signal;HPM_P1;HPM_P2
2021/10/22 00:00:19;;;;;;;7.00;4.90;;;22.40;55.20;;;;;;5054327;28;20428;-82
2021/10/22 00:02:54;;;;;;;7.77;5.03;;;22.40;55.20;;;;;;5057221;28;20194;-80
2021/10/22 00:05:32;;;;;;;6.87;5.17;;;22.40;55.20;;;;;;5072898;28;20468;-80
2021/10/22 00:07:59;;;;;;;9.53;4.90;;;22.40;55.20;;;;;;5055230;28;20424;-81
2021/10/22 00:10:25;;;;;;;8.03;4.53;;;22.40;55.20;;;;;;5053097;28;20418;-80
2021/10/22 00:12:53;;;;;;;8.40;4.60;;;22.40;55.20;;;;;;5056317;28;20799;-82
2021/10/22 00:15:22;;;;;;;7.87;5.50;;;22.40;55.20;;;;;;5054252;28;20508;-81
2021/10/22 00:17:48;;;;;;;6.23;4.70;;;22.40;55.20;;;;;;5073106;28;20448;-82
2021/10/22 00:20:14;;;;;;;8.57;5.47;;;22.40;55.20;;;;;;5054855;28;20460;-81
2021/10/22 00:22:41;;;;;;;6.63;4.43;;;22.40;55.20;;;;;;5052297;28;20195;-82
2021/10/22 00:25:08;;;;;;;7.90;5.70;;;22.40;55.20;;;;;;5054235;28;20480;-81
2021/10/22 00:27:33;;;;;;;7.60;4.90;;;22.40;55.20;;;;;;5072018;28;20413;-81
2021/10/22 00:30:01;;;;;;;7.40;4.57;;;22.40;55.10;;;;;;5072683;28;20528;-82
2021/10/22 00:32:28;;;;;;;6.70;4.13;;;22.40;55.20;;;;;;5055830;28;20186;-81
2021/10/22 00:34:53;;;;;;;6.70;4.53;;;22.40;55.20;;;;;;5040083;28;20447;-82
2021/10/22 00:37:21;;;;;;;6.17;4.57;;;22.40;55.20;;;;;;5055807;28;20465;-83
2021/10/22 00:39:47;;;;;;;7.83;5.00;;;22.40;55.20;;;;;;5073209;28;20190;-82
2021/10/22 00:42:13;;;;;;;7.00;5.00;;;22.40;55.20;;;;;;5039159;28;20424;-81
2021/10/22 00:44:40;;;;;;;8.10;4.70;;;22.40;55.20;;;;;;5055384;28;20410;-82
2021/10/22 00:47:06;;;;;;;7.60;5.17;;;22.40;55.20;;;;;;5058600;28;20927;-82
2021/10/22 00:49:32;;;;;;;7.87;4.93;;;22.40;55.20;;;;;;5056402;28;20425;-82
2021/10/22 00:51:58;;;;;;;6.90;4.77;;;22.40;55.20;;;;;;5055967;28;20448;-82
2021/10/22 00:54:24;;;;;;;7.37;5.30;;;22.40;55.20;;;;;;5056765;28;20182;-82
2021/10/22 00:56:50;;;;;;;7.00;4.60;;;22.40;55.20;;;;;;5052969;28;20475;-82
2021/10/22 00:59:17;;;;;;;8.40;5.47;;;22.40;55.20;;;;;;5075805;28;20460;-81
2021/10/22 01:01:43;;;;;;;5.97;4.20;;;22.40;55.20;;;;;;5056445;28;20178;-83
2021/10/22 01:04:09;;;;;;;7.00;4.33;;;22.40;55.30;;;;;;5079099;28;20417;-81
2021/10/22 01:06:39;;;;;;;7.33;4.77;;;22.40;55.20;;;;;;5063918;28;20185;-82
2021/10/22 01:09:10;;;;;;;7.00;5.40;;;22.40;55.20;;;;;;5046983;28;20424;-82
2021/10/22 01:11:36;;;;;;;6.57;4.50;;;22.40;55.20;;;;;;5058157;28;20421;-82
2021/10/22 01:14:03;;;;;;;7.90;4.50;;;22.40;55.30;;;;;;5078656;28;20456;-82
2021/10/22 01:16:29;;;;;;;8.83;4.60;;;22.40;55.30;;;;;;5063071;28;20482;-82
2021/10/22 01:18:55;;;;;;;7.10;4.10;;;22.40;55.30;;;;;;5046151;28;20417;-82
2021/10/22 01:21:21;;;;;;;7.23;4.70;;;22.40;55.30;;;;;;5083996;28;20425;-82
2021/10/22 01:23:47;;;;;;;6.07;4.27;;;22.40;55.30;;;;;;5069633;28;20447;-81
2021/10/22 01:26:13;;;;;;;6.83;3.80;;;22.40;55.30;;;;;;5067709;28;20420;-82
2021/10/22 01:28:40;;;;;;;6.97;4.40;;;22.40;55.30;;;;;;5069613;28;20411;-82
2021/10/22 01:31:06;;;;;;;6.57;4.70;;;22.40;55.30;;;;;;5087224;28;20462;-83
2021/10/22 01:33:32;;;;;;;8.53;5.00;;;22.40;55.30;;;;;;5073267;28;20413;-82
2021/10/22 01:35:58;;;;;;;6.30;3.97;;;22.40;55.30;;;;;;5055581;28;20479;-81
2021/10/22 01:38:27;;;;;;;6.97;4.07;;;22.40;55.20;;;;;;5061022;28;20460;-82
2021/10/22 01:40:58;;;;;;;5.80;4.47;;;22.40;55.20;;;;;;5079151;28;20431;-82
2021/10/22 01:43:29;;;;;;;6.47;4.70;;;22.40;55.20;;;;;;5077876;28;20418;-81
2021/10/22 01:45:55;;;;;;;5.60;3.60;;;22.40;55.20;;;;;;5077879;28;20449;-81
2021/10/22 01:48:22;;;;;;;7.23;4.27;;;22.40;55.30;;;;;;5060219;28;20507;-82
2021/10/22 01:50:48;;;;;;;7.87;5.13;;;22.40;55.20;;;;;;5060070;28;20430;-82
2021/10/22 01:53:19;;;;;;;5.73;3.90;;;22.40;55.20;;;;;;5058045;28;20429;-82
2021/10/22 01:55:45;;;;;;;7.57;4.40;;;22.40;55.20;;;;;;5040141;28;20427;-81
2021/10/22 01:58:17;;;;;;;6.20;4.57;;;22.40;55.20;;;;;;5039773;28;20458;-81
2021/10/22 02:00:43;;;;;;;6.83;4.60;;;22.40;55.20;;;;;;5039742;28;20410;-81
2021/10/22 02:03:09;;;;;;;6.70;4.23;;;22.40;55.30;;;;;;5039707;28;20386;-81
2021/10/22 02:05:36;;;;;;;5.93;4.03;;;22.40;55.30;;;;;;5039997;28;20473;-82
2021/10/22 02:08:03;;;;;;;6.77;4.10;;;22.40;55.30;;;;;;5023434;28;20176;-81
2021/10/22 02:10:29;;;;;;;4.70;4.03;;;22.40;55.30;;;;;;5023898;28;20430;-82
2021/10/22 02:12:56;;;;;;;6.57;4.20;;;22.40;55.30;;;;;;5057279;28;20414;-81
2021/10/22 02:15:22;;;;;;;7.10;3.70;;;22.40;55.30;;;;;;5040544;28;20426;-81
2021/10/22 02:17:48;;;;;;;6.60;4.20;;;22.40;55.30;;;;;;5057282;28;20489;-81
2021/10/22 02:20:15;;;;;;;7.17;4.30;;;22.40;55.30;;;;;;5057328;28;20434;-81
2021/10/22 02:22:41;;;;;;;7.10;4.53;;;22.40;55.30;;;;;;5056935;28;20445;-82
2021/10/22 02:25:07;;;;;;;5.20;3.60;;;22.40;55.30;;;;;;5057621;28;20486;-81
2021/10/22 02:27:34;;;;;;;6.40;4.17;;;22.40;55.30;;;;;;5040559;28;20425;-81
2021/10/22 02:30:00;;;;;;;4.80;3.47;;;22.40;55.30;;;;;;5040586;28;20534;-81
2021/10/22 02:32:26;;;;;;;4.97;3.63;;;22.40;55.30;;;;;;5057813;28;20442;-81
2021/10/22 02:34:52;;;;;;;5.90;3.60;;;22.40;55.30;;;;;;5040324;28;20414;-80
2021/10/22 02:37:18;;;;;;;5.20;3.40;;;22.40;55.30;;;;;;5055415;28;20454;-80
2021/10/22 02:39:44;;;;;;;6.70;4.67;;;22.40;55.30;;;;;;5056936;28;20171;-80
2021/10/22 02:42:14;;;;;;;8.07;4.50;;;22.40;55.40;;;;;;5039551;28;20422;-80
2021/10/22 02:44:45;;;;;;;5.23;3.33;;;22.40;55.30;;;;;;5056071;28;20780;-83
2021/10/22 02:47:12;;;;;;;5.33;4.40;;;22.40;55.30;;;;;;5054561;28;20414;-83
2021/10/22 02:49:39;;;;;;;6.17;4.60;;;22.40;55.30;;;;;;5056454;28;20419;-84
2021/10/22 02:52:11;;;;;;;4.50;3.50;;;22.40;55.30;;;;;;5038568;28;20422;-84
2021/10/22 02:54:38;;;;;;;5.47;3.53;;;22.40;55.40;;;;;;5042908;28;20431;-84
2021/10/22 02:57:05;;;;;;;4.67;3.40;;;22.40;55.30;;;;;;5075932;28;20954;-84
2021/10/22 02:59:32;;;;;;;5.73;3.80;;;22.40;55.30;;;;;;5057928;28;20437;-84
2021/10/22 03:02:09;;;;;;;5.97;3.77;;;22.40;55.30;;;;;;5057813;28;20413;-84
2021/10/22 03:04:42;;;;;;;5.70;3.70;;;22.40;55.30;;;;;;5041992;28;20440;-84
2021/10/22 03:07:08;;;;;;;4.83;3.67;;;22.40;55.30;;;;;;5056371;28;20441;-84
2021/10/22 03:09:35;;;;;;;5.20;3.67;;;22.40;55.30;;;;;;5056285;28;20441;-83
2021/10/22 03:12:02;;;;;;;4.10;3.20;;;22.40;55.40;;;;;;5075500;28;20202;-82
2021/10/22 03:14:29;;;;;;;4.60;3.10;;;22.40;55.30;;;;;;5057060;28;20501;-82
2021/10/22 03:16:56;;;;;;;6.07;3.80;;;22.40;55.30;;;;;;5056971;28;20456;-83
2021/10/22 03:19:23;;;;;;;5.77;4.13;;;22.40;55.30;;;;;;5056706;28;20454;-83
2021/10/22 03:21:49;;;;;;;4.83;3.50;;;22.40;55.30;;;;;;5074558;28;20402;-83
2021/10/22 03:24:18;;;;;;;4.77;3.60;;;22.40;55.30;;;;;;5057372;28;20448;-83
2021/10/22 03:26:44;;;;;;;7.27;4.50;;;22.40;55.30;;;;;;5056516;28;20447;-83
2021/10/22 03:29:10;;;;;;;6.70;4.60;;;22.40;55.30;;;;;;5056246;28;20500;-82
2021/10/22 03:31:37;;;;;;;4.80;3.47;;;22.40;55.30;;;;;;5056172;28;20210;-82
2021/10/22 03:34:03;;;;;;;3.97;3.37;;;22.40;55.30;;;;;;5056898;28;20448;-83
2021/10/22 03:36:29;;;;;;;4.90;3.50;;;22.40;55.30;;;;;;5056869;28;20448;-83
2021/10/22 03:38:57;;;;;;;5.40;3.50;;;22.40;55.30;;;;;;5057395;28;20444;-83
2021/10/22 03:41:24;;;;;;;5.47;3.37;;;22.40;55.30;;;;;;5040351;28;20408;-83
2021/10/22 03:43:50;;;;;;;5.47;3.33;;;22.40;55.30;;;;;;5039928;28;20488;-83
2021/10/22 03:46:16;;;;;;;4.77;3.33;;;22.40;55.30;;;;;;5055986;28;20440;-83
2021/10/22 03:48:44;;;;;;;6.63;3.33;;;22.40;55.30;;;;;;5056204;28;20410;-83
2021/10/22 03:51:12;;;;;;;3.97;3.17;;;22.40;55.30;;;;;;5056270;28;20183;-82
2021/10/22 03:53:41;;;;;;;4.87;3.13;;;22.40;55.30;;;;;;5055784;28;20492;-83
2021/10/22 03:56:07;;;;;;;4.63;2.97;;;22.40;55.30;;;;;;5051009;28;20479;-83
2021/10/22 03:58:34;;;;;;;4.80;3.07;;;22.40;55.30;;;;;;5056440;28;20488;-83
2021/10/22 04:01:12;;;;;;;6.70;4.03;;;22.40;55.30;;;;;;5056761;28;20421;-83
2021/10/22 04:03:45;;;;;;;5.60;3.67;;;22.40;55.30;;;;;;5072273;28;20178;-82
2021/10/22 04:06:12;;;;;;;4.77;2.90;;;22.40;55.40;;;;;;5039215;28;20432;-83
2021/10/22 04:12:01;;;;;;;3.80;3.30;;;22.40;55.30;;;;;;5069041;28;20389;-83
2021/10/22 04:14:26;;;;;;;7.00;3.50;;;22.40;55.40;;;;;;5050203;28;20418;-83
2021/10/22 04:16:55;;;;;;;3.70;2.73;;;22.40;55.40;;;;;;5067391;28;20453;-83
2021/10/22 04:19:21;;;;;;;4.60;3.00;;;22.40;55.40;;;;;;5050389;28;20637;-83
2021/10/22 04:21:51;;;;;;;4.80;3.50;;;22.30;55.40;;;;;;5068782;28;20421;-83
2021/10/22 04:24:20;;;;;;;5.20;2.90;;;22.30;55.40;;;;;;5052591;28;20417;-80
2021/10/22 04:26:46;;;;;;;5.70;3.33;;;22.40;55.50;;;;;;5069825;28;20426;-80
2021/10/22 04:29:13;;;;;;;4.33;2.90;;;22.40;55.50;;;;;;5053019;28;20950;-81
2021/10/22 04:31:40;;;;;;;4.20;2.90;;;22.40;55.40;;;;;;5052090;28;20719;-80
2021/10/22 04:34:08;;;;;;;5.07;2.77;;;22.40;55.10;;;;;;5052019;28;20418;-81
2021/10/22 04:36:36;;;;;;;3.70;2.87;;;22.40;55.40;;;;;;5051731;28;20536;-81
2021/10/22 04:41:49;;;;;;;5.73;3.60;;;22.40;55.40;;;;;;5070897;28;20397;-81
2021/10/22 04:44:16;;;;;;;4.27;2.67;;;22.40;55.40;;;;;;5069934;28;20418;-81
2021/10/22 04:46:42;;;;;;;3.57;2.87;;;22.40;55.40;;;;;;5070687;28;20206;-81
2021/10/22 04:49:09;;;;;;;5.20;2.60;;;22.40;55.30;;;;;;5052676;28;20439;-81
2021/10/22 04:51:35;;;;;;;4.77;3.20;;;22.40;55.30;;;;;;5052002;28;20418;-81
2021/10/22 04:54:01;;;;;;;3.73;2.60;;;22.40;55.30;;;;;;5052343;28;20429;-81
2021/10/22 04:56:27;;;;;;;4.67;2.40;;;22.40;55.20;;;;;;5052475;28;20456;-80
2021/10/22 04:58:53;;;;;;;3.00;2.40;;;22.40;55.20;;;;;;5052494;28;20179;-81
2021/10/22 05:04:41;;;;;;;3.03;2.67;;;22.50;55.30;;;;;;5069582;28;20408;-81
2021/10/22 05:10:30;;;;;;;3.87;2.53;;;22.50;55.30;;;;;;5069530;28;20190;-82
2021/10/22 05:12:56;;;;;;;4.50;2.67;;;22.40;55.20;;;;;;5052320;28;20493;-82
2021/10/22 05:15:24;;;;;;;2.83;2.27;;;22.40;55.20;;;;;;5051714;28;20421;-81
2021/10/22 05:17:49;;;;;;;4.40;2.20;;;22.40;55.20;;;;;;5051656;28;20891;-81
2021/10/22 05:20:16;;;;;;;3.30;2.70;;;22.50;55.30;;;;;;5055703;28;20490;-81
2021/10/22 05:22:42;;;;;;;4.23;3.23;;;22.50;55.20;;;;;;5054927;28;20198;-81
2021/10/22 05:25:10;;;;;;;4.37;3.00;;;22.50;55.20;;;;;;5055650;28;20429;-81
2021/10/22 05:27:36;;;;;;;3.60;2.30;;;22.50;55.20;;;;;;5055457;28;20440;-81
2021/10/22 05:30:04;;;;;;;3.63;3.10;;;22.50;55.20;;;;;;5055049;28;20468;-81
2021/10/22 05:32:29;;;;;;;4.90;2.73;;;22.50;55.20;;;;;;5071977;28;20634;-81
2021/10/22 05:34:58;;;;;;;3.73;2.50;;;22.50;55.20;;;;;;5055390;28;20447;-81
2021/10/22 05:40:47;;;;;;;5.40;2.80;;;22.50;55.10;;;;;;5073159;28;20389;-81
2021/10/22 05:43:34;;;;;;;3.53;2.67;;;22.50;55.20;;;;;;5073240;28;20417;-81
2021/10/22 05:45:59;;;;;;;3.50;2.20;;;22.50;55.20;;;;;;5057837;28;20421;-81
2021/10/22 05:48:25;;;;;;;4.80;3.20;;;22.50;55.20;;;;;;5055290;28;20883;-81
2021/10/22 05:50:51;;;;;;;3.33;2.43;;;22.50;55.20;;;;;;5055688;28;20194;-81
2021/10/22 05:53:17;;;;;;;3.73;3.07;;;22.50;55.20;;;;;;5055762;28;20413;-84
2021/10/22 05:55:45;;;;;;;3.43;2.67;;;22.50;55.20;;;;;;5086768;28;20182;-84
2021/10/22 05:58:11;;;;;;;3.03;2.30;;;22.50;55.20;;;;;;5093785;28;20811;-84
2021/10/22 06:00:41;;;;;;;3.43;2.97;;;22.50;55.20;;;;;;5094025;28;20408;-84
2021/10/22 06:03:10;;;;;;;3.97;2.57;;;22.50;55.10;;;;;;5076610;28;20427;-84
2021/10/22 06:05:39;;;;;;;3.73;2.60;;;22.50;55.10;;;;;;5075587;28;20419;-84
2021/10/22 06:08:07;;;;;;;4.97;2.97;;;22.50;55.10;;;;;;5075934;28;20428;-84
2021/10/22 06:10:34;;;;;;;3.03;2.30;;;22.50;55.20;;;;;;5060981;28;20421;-81
2021/10/22 06:13:02;;;;;;;4.10;2.70;;;22.50;55.10;;;;;;5096947;28;20443;-81
2021/10/22 06:15:30;;;;;;;3.67;2.30;;;22.50;55.10;;;;;;5079840;28;20424;-81
2021/10/22 06:17:58;;;;;;;3.27;2.40;;;22.50;55.10;;;;;;5094907;28;20459;-82
2021/10/22 06:20:41;;;;;;;4.63;2.90;;;22.50;55.10;;;;;;5075505;28;20408;-82
2021/10/22 06:25:52;;;;;;;2.90;2.23;;;22.50;55.10;;;;;;5093988;28;20451;-81
2021/10/22 06:28:23;;;;;;;3.23;2.30;;;22.50;55.10;;;;;;5076802;28;20428;-80
2021/10/22 06:30:49;;;;;;;2.17;1.80;;;22.50;55.10;;;;;;5076089;28;20431;-82
2021/10/22 06:33:15;;;;;;;2.73;2.13;;;22.50;55.10;;;;;;5093807;28;20417;-82
2021/10/22 06:35:44;;;;;;;3.13;2.30;;;22.60;55.20;;;;;;5076030;28;20454;-82
2021/10/22 06:38:25;;;;;;;3.70;2.67;;;22.60;55.20;;;;;;5093194;28;20448;-81
2021/10/22 06:44:34;;;;;;;3.13;2.30;;;22.60;55.20;;;;;;5093100;28;20369;-82
2021/10/22 06:47:00;;;;;;;3.03;1.80;;;22.50;55.20;;;;;;5075642;28;20432;-81
2021/10/22 06:49:27;;;;;;;4.77;2.57;;;22.50;55.20;;;;;;5092568;28;20412;-81
2021/10/22 06:51:55;;;;;;;3.57;2.20;;;22.60;55.20;;;;;;5092236;28;20405;-82
2021/10/22 06:54:22;;;;;;;3.70;2.83;;;22.60;55.20;;;;;;5074768;28;20427;-82
2021/10/22 06:56:48;;;;;;;2.17;1.90;;;22.60;55.20;;;;;;5092576;28;20457;-82
2021/10/22 06:59:44;;;;;;;2.67;2.20;;;22.60;55.20;;;;;;5074178;28;20443;-82
2021/10/22 07:02:10;;;;;;;3.90;2.67;;;22.60;55.20;;;;;;5074506;28;20405;-83
2021/10/22 07:04:37;;;;;;;2.83;2.30;;;22.60;55.20;;;;;;5074948;28;20408;-83
2021/10/22 07:07:16;;;;;;;2.53;2.00;;;22.50;55.10;;;;;;5074914;28;20537;-82
2021/10/22 07:09:54;;;;;;;3.77;2.57;;;22.60;55.20;;;;;;5093682;28;20407;-83
2021/10/22 07:12:20;;;;;;;2.87;2.27;;;22.60;55.20;;;;;;5074233;28;20404;-81
2021/10/22 07:14:57;;;;;;;3.90;2.30;;;22.60;55.20;;;;;;5067578;28;20417;-80
2021/10/22 07:17:22;;;;;;;4.23;2.63;;;22.60;55.20;;;;;;5057368;28;20476;-82
2021/10/22 07:19:49;;;;;;;4.07;2.47;;;22.60;55.20;;;;;;5072690;28;20415;-82
2021/10/22 07:22:20;;;;;;;2.90;1.73;;;22.60;55.20;;;;;;5073639;28;20178;-81
2021/10/22 07:24:58;;;;;;;2.30;1.90;;;22.60;55.70;;;;;;5057526;28;20421;-81
2021/10/22 07:27:25;;;;;;;3.77;2.53;;;22.60;55.20;;;;;;5057046;28;20448;-82
2021/10/22 07:29:51;;;;;;;3.10;2.40;;;22.60;55.20;;;;;;5073330;28;20416;-82
2021/10/22 07:32:18;;;;;;;4.47;2.70;;;22.50;55.10;;;;;;5075384;28;20442;-82
2021/10/22 07:34:44;;;;;;;3.33;2.23;;;22.60;55.10;;;;;;5073728;28;20427;-81
2021/10/22 07:37:10;;;;;;;4.93;2.30;;;22.60;55.10;;;;;;5074579;28;21044;-85
2021/10/22 07:39:47;;;;;;;3.40;2.43;;;22.50;55.10;;;;;;5058687;28;20258;-84
2021/10/22 07:42:27;;;;;;;3.40;2.00;;;22.60;55.10;;;;;;5020192;28;20759;-84
2021/10/22 07:45:20;;;;;;;7.20;3.67;;;22.60;55.10;;;;;;5035106;28;20426;-82
2021/10/22 07:47:51;;;;;;;2.40;2.17;;;22.60;55.20;;;;;;5052270;28;20414;-85
2021/10/22 07:50:19;;;;;;;3.40;2.20;;;22.60;55.20;;;;;;5018831;28;20442;-85
2021/10/22 07:52:47;;;;;;;3.43;2.53;;;22.60;55.20;;;;;;5035538;28;20519;-85
2021/10/22 07:55:24;;;;;;;4.70;2.67;;;22.60;55.20;;;;;;5052468;28;20418;-85
2021/10/22 07:57:59;;;;;;;4.80;3.07;;;22.60;55.10;;;;;;5035121;28;20472;-84
2021/10/22 08:00:25;;;;;;;3.83;2.53;;;22.60;55.10;;;;;;5019332;28;20528;-83
2021/10/22 08:02:58;;;;;;;5.10;3.10;;;22.60;55.20;;;;;;5034634;28;20486;-85
2021/10/22 08:05:31;;;;;;;3.70;2.60;;;22.60;55.10;;;;;;5036013;28;20402;-84
2021/10/22 08:08:01;;;;;;;3.80;2.40;;;22.60;55.10;;;;;;5036112;28;20490;-84
2021/10/22 08:10:34;;;;;;;3.80;2.40;;;22.60;55.10;;;;;;5035280;28;20419;-85
2021/10/22 08:13:14;;;;;;;4.10;2.37;;;22.60;55.10;;;;;;5051626;28;20473;-85
2021/10/22 08:16:11;;;;;;;5.43;2.83;;;22.60;55.10;;;;;;5034467;28;20424;-84
2021/10/22 08:19:02;;;;;;;3.83;2.30;;;22.60;55.10;;;;;;5052088;28;20422;-85
2021/10/22 08:24:24;;;;;;;4.40;2.30;;;22.60;55.20;;;;;;4979786;28;20425;-84
2021/10/22 08:30:26;;;;;;;2.80;2.40;;;22.60;55.10;;;;;;4992561;28;20432;-83
2021/10/22 08:32:56;;;;;;;3.83;2.80;;;22.60;55.20;;;;;;4989215;28;20436;-83
2021/10/22 08:36:17;;;;;;;4.93;2.20;;;22.60;55.20;;;;;;4973414;28;20512;-82
2021/10/22 08:38:42;;;;;;;6.57;2.60;;;22.70;55.20;;;;;;4990852;28;20431;-81
2021/10/22 08:41:19;;;;;;;6.30;3.00;;;22.60;55.20;;;;;;4990048;28;20958;-82
2021/10/22 08:43:48;;;;;;;6.57;3.20;;;22.70;55.20;;;;;;4990497;28;20172;-82
2021/10/22 08:46:21;;;;;;;4.83;2.47;;;22.60;55.10;;;;;;4973882;28;20413;-81
2021/10/22 08:48:47;;;;;;;7.10;2.77;;;22.60;55.10;;;;;;4973820;28;20409;-82
2021/10/22 08:51:18;;;;;;;5.10;4.03;;;22.60;55.10;;;;;;4989733;28;20457;-82
2021/10/22 08:53:45;;;;;;;5.63;2.60;;;22.70;55.10;;;;;;4977819;28;20417;-83
2021/10/22 08:56:12;;;;;;;5.17;3.50;;;22.70;55.20;;;;;;4996946;28;20408;-82
2021/10/22 08:58:38;;;;;;;7.70;2.97;;;22.70;55.10;;;;;;5004008;28;20559;-82
2021/10/22 09:01:07;;;;;;;4.50;2.17;;;22.70;55.10;;;;;;5054543;28;20558;-82
2021/10/22 09:03:40;;;;;;;4.27;2.47;;;22.70;55.10;;;;;;5076643;28;20759;-82
2021/10/22 09:06:16;;;;;;;8.03;3.77;;;22.70;55.10;;;;;;5076719;28;20468;-82
2021/10/22 09:08:46;;;;;;;4.50;2.70;;;22.70;55.10;;;;;;5072216;28;20402;-82
2021/10/22 09:11:23;;;;;;;4.73;2.53;;;22.70;55.10;;;;;;5051429;28;20418;-82
2021/10/22 09:14:17;;;;;;;5.67;2.90;;;22.70;55.10;;;;;;5056034;28;20420;-82
2021/10/22 09:16:50;;;;;;;4.77;2.67;;;22.70;55.10;;;;;;5062531;28;20448;-82
2021/10/22 09:19:41;;;;;;;3.90;3.00;;;22.70;55.20;;;;;;5093623;28;20385;-82
2021/10/22 09:22:30;;;;;;;2.73;2.30;;;22.70;55.10;;;;;;5094291;28;20385;-82
2021/10/22 09:25:00;;;;;;;5.37;2.93;;;22.70;55.10;;;;;;5094019;28;20832;-82
2021/10/22 09:27:38;;;;;;;5.20;2.30;;;22.70;55.20;;;;;;5093601;28;20495;-82
2021/10/22 09:30:08;;;;;;;4.43;2.77;;;22.70;55.20;;;;;;5074892;28;20435;-82
2021/10/22 09:32:46;;;;;;;3.87;2.53;;;22.70;55.20;;;;;;5075957;28;20454;-82
2021/10/22 09:35:34;;;;;;;4.23;2.70;;;22.70;55.10;;;;;;5092886;28;20381;-82
2021/10/22 09:38:30;;;;;;;5.77;3.03;;;22.70;55.10;;;;;;5073512;28;20452;-82
2021/10/22 09:41:04;;;;;;;4.30;2.20;;;22.70;55.10;;;;;;5053967;28;20456;-82
2021/10/22 09:43:31;;;;;;;4.73;2.90;;;22.70;55.20;;;;;;5073148;28;20473;-82
2021/10/22 09:46:11;;;;;;;8.13;2.80;;;22.70;55.10;;;;;;5072822;28;20405;-83
2021/10/22 09:48:38;;;;;;;4.20;2.60;;;22.70;55.10;;;;;;5055010;28;20417;-82
2021/10/22 09:51:42;;;;;;;4.73;2.60;;;22.70;55.10;;;;;;5054795;28;20493;-83
2021/10/22 09:54:08;;;;;;;3.70;2.40;;;22.70;55.10;;;;;;4956436;29;20546;-82
2021/10/22 09:56:37;;;;;;;6.37;2.43;;;22.70;55.20;;;;;;4955998;29;20913;-82
2021/10/22 09:59:08;;;;;;;3.80;2.17;;;22.70;55.10;;;;;;4956125;29;20197;-83
2021/10/22 10:01:36;;;;;;;4.70;3.00;;;22.70;55.10;;;;;;4956148;29;20570;-82
2021/10/22 10:04:04;;;;;;;6.50;2.80;;;22.70;55.10;;;;;;4956239;29;20430;-82
2021/10/22 10:06:34;;;;;;;5.07;2.57;;;22.70;55.10;;;;;;4971683;29;20430;-82
2021/10/22 10:09:02;;;;;;;5.13;2.73;;;22.70;55.10;;;;;;4956124;29;20458;-82
2021/10/22 10:11:29;;;;;;;6.87;3.00;;;22.70;55.10;;;;;;4956844;29;20438;-83
2021/10/22 10:13:56;;;;;;;3.83;2.37;;;22.70;55.10;;;;;;4955012;29;20479;-82
2021/10/22 10:16:29;;;;;;;4.60;2.70;;;22.80;55.20;;;;;;4956369;29;20430;-83
2021/10/22 10:19:12;;;;;;;5.87;2.77;;;22.70;55.10;;;;;;4956322;29;20630;-82
2021/10/22 10:21:48;;;;;;;4.87;2.30;;;22.80;55.20;;;;;;4956056;29;20417;-82
2021/10/22 10:24:30;;;;;;;5.50;2.33;;;22.70;55.10;;;;;;4981006;28;20405;-82
2021/10/22 10:27:09;;;;;;;2.87;2.33;;;22.70;55.10;;;;;;5039622;28;20414;-82
2021/10/22 10:29:41;;;;;;;3.73;2.20;;;22.80;55.20;;;;;;5055040;28;20420;-82
2021/10/22 10:32:11;;;;;;;5.30;2.37;;;22.80;55.20;;;;;;5072722;28;20431;-82
2021/10/22 10:34:44;;;;;;;3.93;2.27;;;22.80;55.20;;;;;;5022251;28;20441;-81
2021/10/22 10:37:30;;;;;;;3.20;1.90;;;22.80;55.20;;;;;;5054638;28;20488;-82
2021/10/22 10:40:08;;;;;;;4.60;2.47;;;22.80;55.20;;;;;;5054742;28;20437;-82
2021/10/22 10:42:43;;;;;;;4.60;2.30;;;22.70;55.10;;;;;;5054183;28;20417;-82
2021/10/22 10:45:36;;;;;;;4.60;1.90;;;22.80;55.20;;;;;;5054185;28;20414;-82
2021/10/22 10:48:13;;;;;;;4.13;2.60;;;22.80;55.20;;;;;;5053405;28;20413;-82
2021/10/22 10:50:43;;;;;;;3.53;1.90;;;22.70;55.50;;;;;;5054121;28;20406;-82
2021/10/22 10:53:14;;;;;;;3.90;2.57;;;22.70;55.10;;;;;;5071799;28;20477;-82
2021/10/22 10:55:51;;;;;;;5.50;3.03;;;22.70;55.10;;;;;;5053996;28;20428;-82
2021/10/22 10:58:21;;;;;;;5.60;2.90;;;22.70;55.10;;;;;;5037937;28;20516;-82
2021/10/22 11:00:51;;;;;;;4.67;2.47;;;22.70;55.10;;;;;;5036770;28;20417;-82
2021/10/22 11:03:22;;;;;;;6.50;2.67;;;22.70;55.10;;;;;;5053616;28;20405;-82
2021/10/22 11:05:54;;;;;;;6.33;2.80;;;22.80;55.20;;;;;;5054041;28;20410;-82
2021/10/22 11:08:29;;;;;;;9.00;3.50;;;22.80;55.20;;;;;;5070738;28;20405;-82
2021/10/22 11:11:13;;;;;;;9.27;3.70;;;22.80;55.20;;;;;;5050174;28;20473;-82
2021/10/22 11:13:46;;;;;;;5.23;3.27;;;22.70;55.10;;;;;;5051100;28;20415;-82
2021/10/22 11:16:21;;;;;;;5.93;3.40;;;22.70;55.20;;;;;;5033322;28;20430;-82
2021/10/22 11:18:51;;;;;;;8.23;3.87;;;22.80;55.30;;;;;;5049688;28;20974;-81
2021/10/22 11:21:18;;;;;;;8.10;3.47;;;22.80;55.30;;;;;;5049390;28;20461;-81
2021/10/22 11:23:45;;;;;;;6.20;3.37;;;22.70;55.20;;;;;;5049316;28;20843;-81
2021/10/22 11:26:30;;;;;;;6.13;4.30;;;22.80;55.30;;;;;;5048991;28;20411;-81
2021/10/22 11:29:16;;;;;;;11.23;3.70;;;22.80;55.20;;;;;;5049188;28;20404;-81
2021/10/22 11:31:50;;;;;;;10.57;3.90;;;22.80;55.30;;;;;;5049931;28;20429;-81
2021/10/22 11:34:32;;;;;;;7.73;4.10;;;22.70;55.20;;;;;;5049180;28;20406;-81
2021/10/22 11:37:15;;;;;;;8.40;4.07;;;22.80;55.20;;;;;;5048834;28;20453;-81
2021/10/22 11:39:57;;;;;;;6.30;3.60;;;22.80;55.30;;;;;;5049147;28;20399;-81
2021/10/22 11:42:38;;;;;;;7.40;4.50;;;22.70;55.20;;;;;;5050106;28;20414;-81
2021/10/22 11:45:12;;;;;;;10.77;4.20;;;22.80;55.30;;;;;;5052201;28;20413;-83
2021/10/22 11:47:46;;;;;;;8.00;3.93;;;22.80;55.30;;;;;;5052921;28;20433;-81
2021/10/22 11:50:12;;;;;;;9.70;4.10;;;22.70;55.20;;;;;;5070426;28;20405;-82
2021/10/22 11:52:40;;;;;;;10.87;4.43;;;22.80;55.30;;;;;;5053279;28;20430;-82
2021/10/22 11:55:06;;;;;;;10.07;5.10;;;22.80;55.30;;;;;;5070069;28;20410;-82
2021/10/22 11:57:37;;;;;;;8.27;4.70;;;22.80;55.30;;;;;;5052577;28;20457;-82
2021/10/22 12:00:06;;;;;;;8.90;4.87;;;22.70;55.20;;;;;;5052607;28;20413;-82
2021/10/22 12:02:37;;;;;;;8.83;3.97;;;22.80;55.30;;;;;;5069493;28;20410;-82
2021/10/22 12:05:08;;;;;;;10.70;4.23;;;22.80;55.30;;;;;;5052140;28;20402;-82
2021/10/22 12:07:39;;;;;;;9.50;4.53;;;22.80;55.30;;;;;;5052492;28;20424;-81
2021/10/22 12:10:06;;;;;;;9.73;4.53;;;22.80;55.30;;;;;;5052629;28;20417;-82
2021/10/22 12:12:38;;;;;;;10.13;4.23;;;22.80;55.30;;;;;;5052409;28;20421;-82
2021/10/22 12:15:05;;;;;;;10.07;5.20;;;22.80;55.30;;;;;;5052627;28;20814;-81
2021/10/22 12:17:32;;;;;;;8.70;4.10;;;22.80;55.30;;;;;;5052752;28;20528;-81
2021/10/22 12:20:05;;;;;;;9.97;4.33;;;22.80;55.30;;;;;;5052278;28;20416;-82
2021/10/22 12:22:48;;;;;;;7.73;4.10;;;22.80;55.30;;;;;;5070310;28;20381;-82
2021/10/22 12:25:20;;;;;;;13.00;5.60;;;22.80;55.30;;;;;;5052436;28;20406;-82
2021/10/22 12:27:50;;;;;;;9.77;4.27;;;22.80;55.30;;;;;;5052347;28;20463;-81
2021/10/22 12:30:19;;;;;;;7.63;4.43;;;22.80;55.30;;;;;;5053146;28;20410;-82
2021/10/22 12:32:58;;;;;;;7.30;3.80;;;22.80;55.30;;;;;;5070100;28;20444;-82
2021/10/22 12:35:34;;;;;;;8.50;4.23;;;22.80;55.30;;;;;;5052347;28;20492;-82
2021/10/22 12:38:22;;;;;;;8.10;4.03;;;22.80;55.30;;;;;;5070087;28;20455;-82
2021/10/22 12:40:51;;;;;;;9.87;4.30;;;22.80;55.30;;;;;;5070877;28;20409;-82
2021/10/22 12:43:37;;;;;;;9.33;4.40;;;22.80;55.30;;;;;;5052222;28;20441;-82
2021/10/22 12:46:13;;;;;;;8.27;4.83;;;22.80;55.30;;;;;;5069707;28;20397;-82
2021/10/22 12:48:53;;;;;;;10.80;4.40;;;22.80;55.40;;;;;;5052308;28;20464;-82
2021/10/22 12:51:28;;;;;;;10.70;5.97;;;22.80;55.40;;;;;;5047724;28;20493;-82
2021/10/22 12:54:08;;;;;;;9.10;5.00;;;22.80;55.40;;;;;;5033238;28;20421;-82
2021/10/22 12:56:37;;;;;;;8.57;4.20;;;22.80;55.40;;;;;;5033140;28;20407;-81
2021/10/22 12:59:08;;;;;;;9.43;4.50;;;22.80;55.40;;;;;;5049999;28;20410;-81
2021/10/22 13:01:35;;;;;;;10.33;4.33;;;22.80;55.30;;;;;;5033572;28;20444;-82
2021/10/22 13:04:10;;;;;;;10.63;4.13;;;22.80;55.30;;;;;;5050769;28;20410;-82
2021/10/22 13:07:09;;;;;;;6.50;3.37;;;22.80;55.30;;;;;;5033829;28;20426;-82
2021/10/22 13:13:01;;;;;;;5.80;3.67;;;22.80;55.20;;;;;;4993308;28;20456;-81
2021/10/22 13:21:12;;;;;;;5.17;2.73;;;22.70;55.00;;;;;;5017751;28;20409;-81
2021/10/22 13:23:39;;;;;;;5.17;3.80;;;22.70;54.90;;;;;;5050650;28;20417;-82
2021/10/22 13:26:05;;;;;;;4.10;2.60;;;22.70;54.80;;;;;;5017402;28;20466;-81
2021/10/22 13:28:33;;;;;;;6.53;2.80;;;22.70;54.70;;;;;;5033739;28;20422;-81
2021/10/22 13:31:06;;;;;;;3.50;2.43;;;22.70;54.60;;;;;;5050934;28;20439;-82
2021/10/22 13:33:33;;;;;;;5.87;3.50;;;22.70;54.50;;;;;;5033319;28;20465;-81
2021/10/22 13:36:01;;;;;;;8.27;3.10;;;22.70;54.50;;;;;;5051116;28;20433;-81
2021/10/22 13:38:35;;;;;;;3.63;2.47;;;22.70;54.40;;;;;;5051871;28;20454;-82
2021/10/22 13:41:02;;;;;;;3.83;2.00;;;22.70;54.40;;;;;;5053343;28;20465;-82